Time;durP1;ratioP1;P1;durP2;ratioP2;P2;SDS_P1;SDS_P2;PMS_P1;PMS_P2;Temp;Humidity;BMP_temperature;BMP_pressure;BME280_temperature;BME280_humidity;BME280_pressure;Samples;Min_cycle;Max_cycle;Signal;HPM_P1;HPM_P2
2021/09/20 00:00:44;;;;;;;0.70;0.70;;;22.20;50.80;;;26.16;33.96;101842.06;5113762;28;20106;-11
2021/09/20 00:03:10;;;;;;;0.68;0.68;;;22.20;50.90;;;26.15;34.02;101837.66;5113169;28;20070;-11
2021/09/20 00:05:36;;;;;;;0.70;0.70;;;22.20;50.90;;;26.17;34.01;101845.59;5113641;28;20502;-11
2021/09/20 00:08:03;;;;;;;1.17;0.82;;;22.20;50.90;;;26.16;34.04;101827.78;5113691;28;20047;-11
2021/09/20 00:10:29;;;;;;;0.80;0.80;;;22.20;50.90;;;26.15;33.98;101837.66;5114091;28;20050;-11
2021/09/20 00:12:55;;;;;;;0.77;0.77;;;22.20;50.90;;;26.15;34.08;101829.63;5113566;28;20456;-12
2021/09/20 00:15:21;;;;;;;0.90;0.80;;;22.20;50.80;;;26.13;34.05;101836.91;5113877;28;20058;-11
2021/09/20 00:17:47;;;;;;;0.60;0.60;;;22.20;50.80;;;26.13;33.88;101836.03;5113881;28;20476;-11
2021/09/20 00:20:14;;;;;;;0.75;0.70;;;22.20;50.90;;;26.13;34.03;101836.91;5113704;28;20047;-11
2021/09/20 00:22:40;;;;;;;0.80;0.70;;;22.20;50.90;;;26.11;33.95;101835.28;5113416;28;20062;-11
2021/09/20 00:25:08;;;;;;;1.13;0.60;;;22.20;50.90;;;26.15;34.00;101844.84;5112131;28;20051;-12
2021/09/20 00:27:33;;;;;;;0.60;0.60;;;22.20;50.90;;;26.14;34.06;101843.13;5113490;28;20160;-11
2021/09/20 00:30:00;;;;;;;0.70;0.70;;;22.20;50.90;;;26.13;34.06;101844.94;5113473;28;20138;-11
2021/09/20 00:32:25;;;;;;;0.73;0.73;;;22.20;50.90;;;26.15;33.99;101852.88;5113196;28;20147;-11
2021/09/20 00:34:51;;;;;;;0.70;0.70;;;22.20;50.80;;;26.16;34.09;101846.53;5113372;28;20563;-11
2021/09/20 00:37:17;;;;;;;0.57;0.57;;;22.20;50.80;;;26.14;33.96;101851.16;5113576;28;20047;-11
2021/09/20 00:39:43;;;;;;;1.02;0.93;;;22.30;50.80;;;26.14;34.03;101859.19;5076357;28;20048;-11
2021/09/20 00:42:09;;;;;;;0.60;0.60;;;22.20;50.80;;;26.11;34.10;101849.56;5113517;28;20467;-11
2021/09/20 00:44:35;;;;;;;0.50;0.50;;;22.20;50.80;;;26.15;34.04;101850.22;5113483;28;20069;-11
2021/09/20 00:47:01;;;;;;;0.68;0.68;;;22.20;50.80;;;26.13;34.05;101849.44;5113717;28;20043;-11
2021/09/20 00:49:26;;;;;;;0.80;0.80;;;22.20;50.90;;;26.14;34.06;101851.16;5113092;28;20510;-11
2021/09/20 00:51:52;;;;;;;0.70;0.70;;;22.20;50.90;;;26.12;33.91;101851.25;5113087;28;20048;-11
2021/09/20 00:54:18;;;;;;;0.70;0.70;;;22.20;50.90;;;26.13;34.07;101852.13;5113592;28;20079;-11
2021/09/20 00:56:45;;;;;;;0.60;0.60;;;22.20;50.90;;;26.12;34.09;101847.72;5113093;28;20134;-12
2021/09/20 00:59:10;;;;;;;0.70;0.70;;;22.20;50.90;;;26.11;34.09;101854.03;5094648;28;20138;-11
2021/09/20 01:01:36;;;;;;;0.65;0.60;;;22.20;50.80;;;26.11;33.95;101851.38;5113249;28;20108;-11
2021/09/20 01:04:03;;;;;;;0.52;0.52;;;22.20;50.90;;;26.13;34.06;101852.13;5113213;28;20471;-11
2021/09/20 01:06:30;;;;;;;0.60;0.60;;;22.20;51.00;;;26.13;34.11;101846.75;5113235;28;20483;-11
2021/09/20 01:08:57;;;;;;;0.63;0.63;;;22.20;50.90;;;26.12;33.98;101850.41;5112739;28;20437;-11
2021/09/20 01:11:25;;;;;;;0.80;0.80;;;22.20;50.90;;;26.12;34.08;101853.94;5113327;28;20066;-11
2021/09/20 01:13:50;;;;;;;0.60;0.60;;;22.20;51.00;;;26.10;34.11;101847.00;5112859;28;20138;-11
2021/09/20 01:16:16;;;;;;;0.70;0.70;;;22.20;50.90;;;26.13;33.97;101850.31;5116064;28;20054;-11
2021/09/20 01:18:42;;;;;;;0.70;0.70;;;22.20;50.90;;;26.07;34.01;101848.88;5116280;28;20154;-11
2021/09/20 01:21:08;;;;;;;0.60;0.60;;;22.20;50.90;;;26.14;33.99;101852.00;5115869;28;20047;-11
2021/09/20 01:23:34;;;;;;;0.70;0.70;;;22.10;50.90;;;26.12;33.95;101845.91;5116187;28;20058;-11
2021/09/20 01:26:00;;;;;;;0.70;0.70;;;22.20;51.00;;;26.13;34.14;101853.00;5116083;28;20134;-11
2021/09/20 01:28:26;;;;;;;0.80;0.80;;;22.20;50.90;;;26.11;34.16;101851.38;5116495;28;20049;-11
2021/09/20 01:30:52;;;;;;;0.70;0.70;;;22.20;50.90;;;26.11;34.10;101852.25;5116265;28;20089;-11
2021/09/20 01:33:17;;;;;;;0.80;0.80;;;22.10;50.90;;;26.13;34.10;101852.13;5116188;28;20134;-11
2021/09/20 01:35:43;;;;;;;0.70;0.70;;;22.20;51.00;;;26.09;34.13;101848.78;5116230;28;20047;-11
2021/09/20 01:38:09;;;;;;;0.63;0.63;;;22.10;50.90;;;26.10;34.13;101860.38;5116150;28;20059;-11
2021/09/20 01:40:34;;;;;;;0.60;0.60;;;22.20;51.00;;;26.11;34.15;101854.94;5115976;28;20051;-11
2021/09/20 01:43:01;;;;;;;0.70;0.70;;;22.10;50.90;;;26.09;34.01;101859.50;5115979;28;20056;-11
2021/09/20 01:45:27;;;;;;;0.60;0.60;;;22.10;50.90;;;26.12;34.13;101853.09;5116335;28;20467;-11
2021/09/20 01:47:54;;;;;;;0.85;0.60;;;22.20;51.00;;;26.10;34.09;101855.03;5116252;28;20054;-11
2021/09/20 01:50:20;;;;;;;0.70;0.70;;;22.20;51.00;;;26.11;34.17;101856.72;5115790;28;20047;-11
2021/09/20 01:52:46;;;;;;;0.80;0.80;;;22.10;51.00;;;26.07;34.07;101856.94;5115837;28;20044;-11
2021/09/20 01:55:13;;;;;;;0.80;0.80;;;22.10;50.90;;;26.09;34.06;101854.16;5115839;28;20380;-11
2021/09/20 01:57:39;;;;;;;0.50;0.50;;;22.10;50.90;;;26.10;34.13;101860.38;5097390;28;20039;-11
2021/09/20 02:00:08;;;;;;;0.70;0.70;;;22.10;50.90;;;26.08;34.11;101849.78;5115529;28;20130;-11
2021/09/20 02:02:37;;;;;;;0.50;0.50;;;22.10;51.00;;;26.12;34.08;101855.78;5115876;28;20438;-11
2021/09/20 02:05:04;;;;;;;0.70;0.70;;;22.10;50.90;;;26.07;33.92;101843.53;5115974;28;20047;-11
2021/09/20 02:07:30;;;;;;;0.80;0.80;;;22.10;50.90;;;26.08;33.97;101847.09;5115489;28;20052;-11
2021/09/20 02:09:56;;;;;;;0.80;0.80;;;22.10;50.90;;;26.10;34.08;101850.50;5115864;28;20092;-11
2021/09/20 02:12:22;;;;;;;0.70;0.70;;;22.10;51.00;;;26.09;34.07;101839.91;5115485;28;20044;-11
2021/09/20 02:14:47;;;;;;;0.80;0.80;;;22.10;51.00;;;26.08;34.20;101841.72;5115990;28;20048;-11
2021/09/20 02:17:13;;;;;;;0.70;0.70;;;22.10;50.90;;;26.09;33.99;101846.09;5115567;28;20126;-11
2021/09/20 02:19:40;;;;;;;0.70;0.70;;;22.10;50.90;;;26.09;34.02;101840.75;5115328;28;20058;-11
2021/09/20 02:22:07;;;;;;;0.70;0.70;;;22.20;50.90;;;26.09;34.02;101846.09;5115458;28;20395;-11
2021/09/20 02:24:32;;;;;;;0.50;0.50;;;22.10;50.80;;;26.10;34.05;101847.84;5115376;28;20039;-11
2021/09/20 02:26:58;;;;;;;0.85;0.73;;;22.10;50.90;;;26.08;34.05;101836.38;5114600;28;20536;-11
2021/09/20 02:29:24;;;;;;;0.80;0.80;;;22.10;50.90;;;26.05;34.00;101839.25;5115266;28;20498;-11
2021/09/20 02:31:50;;;;;;;0.50;0.50;;;22.10;50.90;;;26.08;33.98;101855.13;5115216;28;20483;-11
2021/09/20 02:34:17;;;;;;;0.65;0.65;;;22.10;51.00;;;26.08;34.09;101841.72;5115217;28;20056;-11
2021/09/20 02:36:44;;;;;;;0.77;0.70;;;22.10;51.00;;;26.06;34.09;101849.88;5115244;28;20055;-11
2021/09/20 02:39:10;;;;;;;0.77;0.77;;;22.10;50.90;;;26.06;34.21;101840.94;5115093;28;20153;-11
2021/09/20 02:41:36;;;;;;;0.60;0.60;;;22.10;50.90;;;26.06;34.00;101847.19;5115101;28;20047;-12
2021/09/20 02:44:03;;;;;;;0.95;0.70;;;22.10;50.90;;;26.07;33.94;101848.88;5113755;28;20051;-11
2021/09/20 02:46:30;;;;;;;0.60;0.60;;;22.10;50.90;;;26.06;34.21;101852.56;5114907;28;20047;-11
2021/09/20 02:48:57;;;;;;;0.75;0.68;;;22.10;50.90;;;26.07;34.03;101856.94;5115459;28;20044;-11
2021/09/20 02:51:22;;;;;;;0.60;0.60;;;22.10;51.00;;;26.03;33.91;101842.03;5115544;28;20406;-11
2021/09/20 02:53:48;;;;;;;0.70;0.70;;;22.10;50.90;;;26.02;34.15;101851.03;5114879;28;20043;-11
2021/09/20 02:56:14;;;;;;;0.70;0.70;;;22.10;50.90;;;26.04;34.11;101850.94;5113275;28;20464;-15
2021/09/20 02:58:40;;;;;;;0.70;0.70;;;22.10;51.00;;;26.06;33.93;101852.56;5114854;28;20498;-11
2021/09/20 03:01:05;;;;;;;0.70;0.70;;;22.10;50.90;;;26.06;33.85;101857.91;5114758;28;20048;-11
2021/09/20 03:03:31;;;;;;;0.60;0.60;;;22.10;50.90;;;26.05;34.08;101864.22;5114622;28;20067;-12
2021/09/20 03:05:57;;;;;;;0.70;0.70;;;22.10;50.90;;;26.06;34.13;101862.41;5114965;28;20048;-11
2021/09/20 03:08:23;;;;;;;0.70;0.70;;;22.10;50.90;;;26.07;34.08;101861.44;5111377;28;20518;-11
2021/09/20 03:10:49;;;;;;;0.80;0.80;;;22.10;50.90;;;26.06;34.12;101859.72;5114713;28;20575;-11
2021/09/20 03:13:14;;;;;;;0.75;0.75;;;22.10;50.90;;;26.04;34.04;101864.31;5113164;28;20076;-11
2021/09/20 03:15:40;;;;;;;0.60;0.60;;;22.10;50.90;;;26.06;34.09;101865.94;5114333;28;20051;-11
2021/09/20 03:18:06;;;;;;;0.60;0.60;;;22.10;51.00;;;26.03;34.16;101863.47;5114588;28;20071;-11
2021/09/20 03:20:32;;;;;;;0.73;0.70;;;22.00;51.10;;;26.05;34.06;101868.75;5114442;28;20056;-11
2021/09/20 03:22:58;;;;;;;0.70;0.70;;;22.00;51.30;;;26.03;34.15;101871.50;5096218;28;20050;-11
2021/09/20 03:25:23;;;;;;;0.50;0.50;;;21.90;51.40;;;26.03;34.12;101871.50;5096472;28;20054;-11
2021/09/20 03:27:50;;;;;;;0.63;0.63;;;21.90;51.40;;;26.04;34.15;101867.00;5114337;28;20076;-11
2021/09/20 03:30:16;;;;;;;0.73;0.70;;;21.90;51.40;;;26.02;34.15;101868.94;5114424;28;20092;-11
2021/09/20 03:32:43;;;;;;;0.60;0.60;;;21.90;51.40;;;26.05;34.09;101874.09;5114184;28;20075;-11
2021/09/20 03:35:12;;;;;;;0.70;0.70;;;21.90;51.40;;;26.02;34.14;101869.78;5114593;28;20056;-11
2021/09/20 03:37:38;;;;;;;0.70;0.70;;;21.90;51.30;;;26.04;34.03;101873.25;5095753;28;20043;-11
2021/09/20 03:40:05;;;;;;;0.80;0.80;;;22.00;51.20;;;26.06;34.15;101876.69;5113248;28;20039;-11
2021/09/20 03:42:31;;;;;;;0.65;0.65;;;22.00;51.20;;;26.05;34.09;101861.53;5114234;28;20130;-11
2021/09/20 03:44:57;;;;;;;0.73;0.73;;;22.00;51.10;;;26.08;34.16;101873.91;5114355;28;20061;-11
2021/09/20 03:47:22;;;;;;;0.60;0.60;;;22.10;51.00;;;26.10;34.09;101880.00;5114089;28;20094;-11
2021/09/20 03:49:48;;;;;;;0.50;0.50;;;22.10;50.80;;;26.09;34.07;101880.09;5114032;28;20047;-11
2021/09/20 03:52:14;;;;;;;0.70;0.70;;;22.10;50.90;;;26.12;33.83;101879.91;5114199;28;20131;-11
2021/09/20 03:54:40;;;;;;;0.70;0.70;;;22.10;51.00;;;26.11;33.97;101879.06;5113900;28;20058;-11
2021/09/20 03:57:05;;;;;;;0.60;0.60;;;22.00;51.10;;;26.10;34.06;101884.50;5095539;28;20040;-11
2021/09/20 03:59:31;;;;;;;0.50;0.50;;;22.00;51.30;;;26.09;34.00;101875.59;5114152;28;20047;-12
2021/09/20 04:01:57;;;;;;;1.13;0.80;;;22.00;51.30;;;26.07;34.05;101878.38;5113887;28;20498;-11
2021/09/20 04:04:23;;;;;;;0.80;0.80;;;21.90;51.60;;;26.07;34.04;101881.06;5113823;28;20072;-11
2021/09/20 04:06:50;;;;;;;0.68;0.60;;;21.90;51.30;;;26.08;34.00;101881.94;5114099;28;20047;-11
2021/09/20 04:09:15;;;;;;;0.70;0.70;;;22.00;51.30;;;26.10;34.07;101888.03;5113633;28;20051;-11
2021/09/20 04:11:41;;;;;;;0.60;0.60;;;22.00;51.30;;;26.10;34.08;101893.41;5113687;28;20085;-11
2021/09/20 04:14:08;;;;;;;0.70;0.70;;;22.00;51.30;;;26.10;33.98;101900.59;5114134;28;20055;-11
2021/09/20 04:16:35;;;;;;;0.70;0.70;;;22.00;51.30;;;26.09;34.05;101893.50;5113577;28;20139;-11
2021/09/20 04:19:02;;;;;;;1.08;0.90;;;22.00;51.30;;;26.05;34.04;101895.53;5113790;28;20051;-11
2021/09/20 04:21:28;;;;;;;0.73;0.70;;;22.00;51.20;;;26.06;34.10;101898.13;5113337;28;20051;-11
2021/09/20 04:23:55;;;;;;;0.63;0.63;;;22.00;51.20;;;26.05;34.12;101899.06;5095199;28;20047;-11
2021/09/20 04:26:21;;;;;;;1.00;0.88;;;22.10;51.10;;;26.08;33.90;101908.72;5113988;28;20051;-11
2021/09/20 04:28:47;;;;;;;0.60;0.60;;;22.10;51.00;;;26.07;33.96;101902.50;5113340;28;20048;-11
2021/09/20 04:31:13;;;;;;;0.70;0.70;;;22.00;51.00;;;26.06;33.93;101899.91;5113159;28;20048;-11
2021/09/20 04:33:38;;;;;;;0.70;0.70;;;22.10;50.90;;;26.08;33.97;101906.06;5113174;28;20044;-11
2021/09/20 04:36:04;;;;;;;0.70;0.70;;;22.10;50.90;;;26.09;34.00;101905.06;5113178;28;20043;-11
2021/09/20 04:38:30;;;;;;;0.70;0.70;;;22.10;50.70;;;26.06;33.81;101899.91;5113029;28;20479;-11
2021/09/20 04:40:56;;;;;;;0.85;0.85;;;22.20;50.70;;;26.07;34.02;101907.00;5113154;28;20047;-11
2021/09/20 04:43:22;;;;;;;0.70;0.70;;;22.10;50.70;;;26.08;34.09;101911.41;5112434;28;20055;-11
2021/09/20 04:45:47;;;;;;;0.60;0.60;;;22.20;50.70;;;26.10;33.91;101916.69;5095014;28;20052;-11
2021/09/20 04:48:13;;;;;;;0.73;0.68;;;22.20;50.70;;;26.10;33.82;101917.53;5113540;28;20097;-11
2021/09/20 04:50:45;;;;;;;0.80;0.70;;;22.20;50.60;;;26.10;33.97;101922.03;5112798;28;20055;-11
2021/09/20 04:53:12;;;;;;;0.77;0.77;;;22.20;50.70;;;26.08;33.96;101924.81;5113119;28;20052;-11
2021/09/20 04:55:38;;;;;;;0.80;0.80;;;22.20;50.80;;;26.09;34.01;101926.50;5112971;28;20043;-11
2021/09/20 04:58:08;;;;;;;0.70;0.70;;;22.10;50.70;;;26.09;33.95;101929.19;5112881;28;20051;-11
2021/09/20 05:00:37;;;;;;;0.60;0.60;;;22.10;51.30;;;26.09;33.92;101926.50;5113098;28;20503;-22
2021/09/20 05:03:03;;;;;;;0.68;0.68;;;22.10;50.70;;;26.07;33.92;101923.09;5112855;28;20052;-11
2021/09/20 05:05:29;;;;;;;0.68;0.68;;;22.10;50.80;;;26.07;33.87;101931.97;5113248;28;20052;-11
2021/09/20 05:07:55;;;;;;;0.65;0.65;;;22.10;50.80;;;26.05;33.84;101931.22;5112992;28;20380;-11
2021/09/20 05:10:21;;;;;;;0.63;0.60;;;22.10;50.80;;;26.07;34.15;101944.53;5112919;28;20096;-11
2021/09/20 05:12:47;;;;;;;0.90;0.60;;;22.10;50.80;;;26.04;33.89;101940.25;5113106;28;20051;-11
2021/09/20 05:15:15;;;;;;;0.68;0.68;;;22.10;50.70;;;26.06;34.02;101941.00;5113210;28;20040;-11
2021/09/20 05:17:43;;;;;;;0.70;0.70;;;22.20;50.80;;;26.06;33.94;101943.69;5112820;28;20050;-11
2021/09/20 05:20:10;;;;;;;0.68;0.57;;;22.10;50.80;;;26.04;33.95;101947.41;5112505;28;20075;-11
2021/09/20 05:22:36;;;;;;;1.88;1.02;;;22.10;50.80;;;26.06;34.05;101945.47;5112763;28;20130;-11
2021/09/20 05:25:04;;;;;;;0.68;0.68;;;22.10;50.80;;;26.07;34.08;101947.22;5112737;28;20084;-11
2021/09/20 05:27:30;;;;;;;0.90;0.77;;;22.10;50.70;;;26.05;34.05;101947.31;5112697;28;20135;-11
2021/09/20 05:29:57;;;;;;;0.60;0.60;;;22.10;50.70;;;26.03;33.99;101943.88;5112479;28;20063;-11
2021/09/20 05:32:24;;;;;;;0.75;0.75;;;22.10;50.80;;;26.03;33.90;101951.91;5113036;28;20087;-11
2021/09/20 05:34:50;;;;;;;0.50;0.50;;;22.10;50.80;;;26.06;34.01;101959.75;5112784;28;20058;-11
2021/09/20 05:37:16;;;;;;;0.50;0.50;;;22.10;50.80;;;26.04;34.01;101953.66;5094320;28;20066;-11
2021/09/20 05:39:42;;;;;;;0.80;0.70;;;22.10;50.90;;;26.04;33.96;101955.44;5112560;28;20048;-11
2021/09/20 05:42:07;;;;;;;0.60;0.60;;;22.10;50.80;;;26.04;33.88;101950.97;5112701;28;20048;-11
2021/09/20 05:44:33;;;;;;;1.00;0.80;;;22.10;50.80;;;26.03;33.97;101948.38;5112837;28;20074;-12
2021/09/20 05:46:59;;;;;;;0.60;0.60;;;22.00;50.90;;;26.02;34.02;101950.19;5112434;28;20067;-11
2021/09/20 05:49:25;;;;;;;0.60;0.60;;;22.10;50.90;;;26.06;33.92;101954.41;5113006;28;20063;-11
2021/09/20 05:51:51;;;;;;;0.63;0.63;;;22.10;51.30;;;26.03;34.05;101956.44;5112978;28;20073;-11
2021/09/20 05:54:17;;;;;;;0.60;0.60;;;22.10;50.80;;;26.05;33.85;101958.03;5112625;28;20058;-11
2021/09/20 05:56:42;;;;;;;0.70;0.65;;;22.10;50.70;;;26.05;33.96;101959.84;5112220;28;20047;-11
2021/09/20 05:59:08;;;;;;;0.70;0.70;;;22.10;50.70;;;26.04;33.87;101952.78;5111927;28;20048;-11
2021/09/20 06:01:34;;;;;;;0.80;0.70;;;22.10;50.70;;;26.03;33.93;101951.91;5112746;28;20044;-11
2021/09/20 06:04:00;;;;;;;0.73;0.65;;;22.10;50.70;;;26.05;33.92;101950.00;5116261;28;20043;-11
2021/09/20 06:06:26;;;;;;;0.90;0.90;;;22.10;50.70;;;26.05;33.81;101962.53;5115658;28;20047;-11
2021/09/20 06:08:52;;;;;;;0.60;0.60;;;22.10;50.70;;;26.06;33.90;101966.91;5115301;28;20096;-11
2021/09/20 06:11:18;;;;;;;1.05;0.85;;;22.10;50.70;;;26.05;33.96;101968.75;5115873;28;20051;-11
2021/09/20 06:13:44;;;;;;;0.63;0.63;;;22.10;50.70;;;26.04;33.90;101963.50;5115483;28;20062;-11
2021/09/20 06:16:10;;;;;;;0.88;0.70;;;22.10;50.70;;;26.05;34.04;101968.75;5115405;28;20083;-11
2021/09/20 06:18:36;;;;;;;0.63;0.63;;;22.10;50.70;;;26.05;33.91;101974.09;5115657;28;20055;-11
2021/09/20 06:21:03;;;;;;;0.60;0.60;;;22.10;50.70;;;26.03;33.99;101961.78;5115195;28;20067;-11
2021/09/20 06:23:28;;;;;;;1.23;0.70;;;22.10;50.60;;;26.06;33.88;101961.56;5115557;28;20047;-11
2021/09/20 06:25:55;;;;;;;0.65;0.60;;;22.20;50.60;;;26.07;33.92;101969.50;5115245;28;20538;-11
2021/09/20 06:28:21;;;;;;;0.70;0.55;;;22.10;50.60;;;26.06;33.95;101973.16;5115177;28;20044;-12
2021/09/20 06:30:47;;;;;;;0.82;0.60;;;22.10;50.80;;;26.07;34.02;101972.19;5115166;28;20085;-11
2021/09/20 06:33:13;;;;;;;0.60;0.60;;;22.10;50.70;;;26.05;33.96;101970.59;5115508;28;20043;-11
2021/09/20 06:35:39;;;;;;;0.70;0.70;;;22.10;50.80;;;26.07;34.08;101980.22;5115110;28;20188;-11
2021/09/20 06:38:05;;;;;;;0.95;0.80;;;22.10;50.90;;;26.06;34.09;101975.84;5115015;28;20051;-11
2021/09/20 06:40:31;;;;;;;0.80;0.77;;;22.10;50.90;;;26.07;33.90;101979.38;5115258;28;20400;-12
2021/09/20 06:42:57;;;;;;;0.60;0.60;;;22.00;50.80;;;26.09;34.09;101981.94;5097457;28;20059;-11
2021/09/20 06:45:23;;;;;;;0.70;0.70;;;22.00;50.90;;;26.07;34.11;101976.69;5115400;28;20036;-11
2021/09/20 06:47:49;;;;;;;0.70;0.70;;;22.00;50.90;;;26.09;33.88;101979.28;5114998;28;20067;-11
2021/09/20 06:50:15;;;;;;;0.68;0.68;;;22.00;50.80;;;26.09;33.78;101976.59;5114979;28;20051;-11
2021/09/20 06:52:41;;;;;;;0.70;0.70;;;22.00;50.80;;;26.07;33.91;101966.81;5114915;28;20166;-11
2021/09/20 06:55:08;;;;;;;0.70;0.70;;;22.00;50.80;;;26.09;33.86;101971.22;5114863;28;20075;-11
2021/09/20 06:57:34;;;;;;;0.60;0.60;;;22.00;50.70;;;26.12;33.96;101979.06;5096594;28;20138;-11
2021/09/20 07:00:00;;;;;;;0.60;0.52;;;22.10;50.80;;;26.11;33.95;101966.63;5115000;28;20052;-11
2021/09/20 07:02:26;;;;;;;1.15;0.80;;;22.10;50.70;;;26.12;33.77;101971.03;5114809;28;20071;-11
2021/09/20 07:04:52;;;;;;;0.77;0.70;;;22.10;50.70;;;26.13;33.81;101976.28;5114666;28;20048;-11
2021/09/20 07:07:18;;;;;;;1.38;0.80;;;22.10;50.60;;;26.12;33.75;101976.38;5114717;28;20051;-11
2021/09/20 07:09:45;;;;;;;0.82;0.60;;;22.20;50.50;;;26.14;33.73;101987.88;5114561;28;20047;-11
2021/09/20 07:12:11;;;;;;;0.70;0.70;;;22.20;50.50;;;26.14;33.56;101982.50;5114526;28;20438;-11
2021/09/20 07:14:37;;;;;;;0.80;0.80;;;22.20;50.50;;;26.16;33.81;101993.97;5114514;28;20078;-11
2021/09/20 07:17:04;;;;;;;0.73;0.60;;;22.20;50.40;;;26.14;33.78;101985.19;5114518;28;20035;-11
2021/09/20 07:19:30;;;;;;;0.65;0.63;;;22.20;50.30;;;26.17;33.79;101987.66;5114579;28;20471;-11
2021/09/20 07:21:56;;;;;;;0.70;0.70;;;22.20;50.90;;;26.16;33.78;101989.50;5114989;28;20479;-11
2021/09/20 07:24:22;;;;;;;0.73;0.73;;;22.30;50.30;;;26.19;33.61;101991.09;5114979;28;20107;-11
2021/09/20 07:26:48;;;;;;;0.70;0.70;;;22.30;50.10;;;26.18;33.74;101982.22;5114686;28;20123;-11
2021/09/20 07:29:14;;;;;;;0.60;0.60;;;22.30;50.00;;;26.20;33.81;101988.31;5114337;28;20039;-11
2021/09/20 07:31:40;;;;;;;0.68;0.68;;;22.30;50.10;;;26.19;33.74;101978.53;5114280;28;20056;-11
2021/09/20 07:34:06;;;;;;;0.70;0.70;;;22.30;50.10;;;26.20;33.50;101977.59;5114416;28;20053;-11
2021/09/20 07:36:33;;;;;;;1.13;1.00;;;22.30;50.00;;;26.22;33.79;101980.19;5114584;28;20392;-11
2021/09/20 07:38:59;;;;;;;0.77;0.77;;;22.30;50.00;;;26.22;33.83;101986.38;5114262;28;20486;-11
2021/09/20 07:41:26;;;;;;;0.88;0.88;;;22.30;50.10;;;26.22;33.69;101996.25;5114068;28;20040;-11
2021/09/20 07:43:51;;;;;;;0.77;0.70;;;22.30;50.10;;;26.22;33.68;101993.56;5114411;28;20605;-11
2021/09/20 07:46:22;;;;;;;0.50;0.50;;;22.30;50.10;;;26.21;33.59;102000.78;5113860;28;20059;-11
2021/09/20 07:48:49;;;;;;;0.63;0.63;;;22.30;50.00;;;26.25;33.55;102002.28;5113874;28;20059;-11
2021/09/20 07:51:15;;;;;;;0.80;0.70;;;22.40;50.00;;;26.21;33.61;102003.44;5113935;28;20135;-11
2021/09/20 07:53:41;;;;;;;0.85;0.85;;;22.40;49.90;;;26.24;33.62;101997.00;5113986;28;20071;-11
2021/09/20 07:56:07;;;;;;;1.40;0.60;;;22.40;49.90;;;26.25;33.68;102009.47;5094394;28;20079;-11
2021/09/20 07:58:33;;;;;;;0.70;0.70;;;22.40;49.80;;;26.22;33.57;102002.47;5113557;28;20476;-11
2021/09/20 08:00:59;;;;;;;1.05;0.95;;;22.40;49.90;;;26.23;33.59;102012.25;5113733;28;20059;-11
2021/09/20 08:03:25;;;;;;;0.85;0.80;;;22.40;50.00;;;26.25;33.67;102021.03;5113759;28;20055;-11
2021/09/20 08:05:52;;;;;;;0.70;0.70;;;22.40;50.00;;;26.24;33.47;102016.66;5114079;28;20533;-11
2021/09/20 08:08:19;;;;;;;0.75;0.75;;;22.40;49.90;;;26.24;33.50;102018.47;5113446;28;20052;-11
2021/09/20 08:10:44;;;;;;;0.60;0.60;;;22.40;49.90;;;26.26;33.55;102024.56;5095285;28;20051;-12
2021/09/20 08:13:10;;;;;;;0.65;0.65;;;22.40;50.00;;;26.24;33.67;102019.34;5113881;28;20039;-11
2021/09/20 08:15:37;;;;;;;0.98;0.90;;;22.40;50.00;;;26.28;33.57;102022.66;5113608;28;20051;-11
2021/09/20 08:18:04;;;;;;;0.68;0.68;;;22.40;49.90;;;26.27;33.51;102018.25;5113435;28;20043;-11
2021/09/20 08:20:30;;;;;;;0.70;0.70;;;22.40;49.80;;;26.29;33.60;102020.84;5113336;28;20495;-11
2021/09/20 08:22:56;;;;;;;0.80;0.80;;;22.50;49.80;;;26.29;33.55;102024.38;5113532;28;20419;-11
2021/09/20 08:25:24;;;;;;;0.73;0.70;;;22.50;49.70;;;26.28;33.57;102020.00;5112732;28;20050;-11
2021/09/20 08:27:51;;;;;;;0.75;0.68;;;22.50;49.70;;;26.32;33.44;102018.81;5113323;28;20123;-11
2021/09/20 08:30:19;;;;;;;0.60;0.60;;;22.50;49.70;;;26.33;33.43;102023.22;5113351;28;20458;-11
2021/09/20 08:32:45;;;;;;;0.68;0.68;;;22.40;49.60;;;26.35;33.33;102034.69;5095425;28;20399;-11
2021/09/20 08:35:11;;;;;;;0.70;0.70;;;22.50;49.60;;;26.38;33.46;102038.97;5095114;28;20043;-11
2021/09/20 08:37:37;;;;;;;0.75;0.60;;;22.50;49.60;;;26.37;33.39;102039.97;5113760;28;20142;-11
2021/09/20 08:40:06;;;;;;;0.82;0.70;;;22.50;49.50;;;26.41;33.42;102033.41;5113078;28;20169;-11
2021/09/20 08:42:35;;;;;;;1.17;0.80;;;22.60;49.40;;;26.41;33.33;102044.13;5113429;28;20039;-11
2021/09/20 08:45:04;;;;;;;0.60;0.60;;;22.50;49.40;;;26.42;33.28;102046.72;5113068;28;20047;-11
2021/09/20 08:47:31;;;;;;;0.60;0.60;;;22.50;49.40;;;26.43;33.27;102045.78;5113107;28;20069;-11
2021/09/20 08:49:57;;;;;;;0.75;0.70;;;22.50;49.30;;;26.43;33.26;102043.09;5112868;28;20040;-11
2021/09/20 08:52:24;;;;;;;0.80;0.77;;;22.60;49.30;;;26.43;33.26;102045.78;5113055;28;20047;-11
2021/09/20 08:54:53;;;;;;;0.80;0.80;;;22.60;49.20;;;26.45;33.11;102051.03;5112789;28;20051;-11
2021/09/20 08:57:20;;;;;;;0.85;0.82;;;22.60;49.20;;;26.44;33.27;102044.78;5112977;28;20039;-11
2021/09/20 08:59:46;;;;;;;0.70;0.70;;;22.60;49.20;;;26.46;33.26;102050.06;5112938;28;20061;-11
2021/09/20 09:02:17;;;;;;;0.68;0.68;;;22.60;49.20;;;26.46;33.27;102039.31;5112746;28;20434;-12
2021/09/20 09:04:43;;;;;;;;;;;22.60;49.60;;;26.62;33.05;102057.94;5095099;28;20051;-11
2021/09/20 09:07:13;;;;;;;0.80;0.80;;;22.60;49.10;;;26.52;33.12;102051.50;5112809;28;19916;-12
2021/09/20 09:09:48;;;;;;;0.70;0.70;;;22.60;49.10;;;26.52;33.13;102057.69;5113186;28;20043;-11
2021/09/20 09:12:26;;;;;;;0.93;0.90;;;22.60;49.10;;;26.50;32.98;102064.16;5112730;28;20135;-11
2021/09/20 09:14:55;;;;;;;0.70;0.70;;;22.60;49.00;;;26.48;33.14;102056.19;5112678;28;20046;-11
2021/09/20 09:17:34;;;;;;;1.17;1.00;;;22.60;49.00;;;26.48;33.11;102064.25;5112423;28;20475;-12
2021/09/20 09:20:18;;;;;;;1.02;0.90;;;22.60;49.10;;;26.52;33.11;102062.22;5112711;28;20044;-11
2021/09/20 09:23:04;;;;;;;0.77;0.70;;;22.70;49.00;;;26.50;33.04;102058.78;5112530;28;20081;-11
2021/09/20 09:25:50;;;;;;;0.80;0.80;;;22.70;48.90;;;26.51;33.02;102071.22;5112827;28;20048;-11
2021/09/20 09:28:21;;;;;;;1.23;0.90;;;22.70;48.90;;;26.52;33.14;102073.78;5112556;28;20048;-11
2021/09/20 09:30:50;;;;;;;0.70;0.70;;;22.70;48.90;;;26.52;33.11;102073.78;5112836;28;20441;-11
2021/09/20 09:33:35;;;;;;;0.93;0.80;;;22.70;48.80;;;26.49;33.10;102073.16;5112394;28;20047;-11
2021/09/20 09:36:02;;;;;;;1.30;1.20;;;22.70;48.90;;;26.52;33.22;102068.44;5112604;28;20044;-11
2021/09/20 09:38:28;;;;;;;0.80;0.80;;;22.70;48.90;;;26.53;32.93;102071.97;5115804;28;20052;-11
2021/09/20 09:41:01;;;;;;;1.33;0.80;;;22.70;48.80;;;26.51;32.97;102072.06;5116120;28;20104;-11
2021/09/20 09:43:35;;;;;;;1.10;0.75;;;22.70;48.90;;;26.54;32.97;102076.38;5116047;28;20055;-11
2021/09/20 09:46:18;;;;;;;0.98;0.80;;;22.70;48.90;;;26.54;32.92;102069.19;5115724;28;20043;-12
2021/09/20 09:48:44;;;;;;;0.98;0.80;;;22.70;48.90;;;26.53;32.93;102064.81;5116208;28;20048;-11
2021/09/20 09:51:11;;;;;;;0.70;0.70;;;22.70;48.90;;;26.54;33.02;102065.66;5115788;28;20055;-11
2021/09/20 09:53:42;;;;;;;1.90;0.90;;;22.70;48.90;;;26.56;32.86;102071.75;5115678;28;20051;-11
2021/09/20 09:56:07;;;;;;;1.30;0.88;;;22.70;48.80;;;26.57;32.96;102073.50;5115759;28;20081;-11
2021/09/20 09:58:33;;;;;;;0.98;0.80;;;22.70;49.00;;;26.56;33.03;102075.31;5115489;28;20055;-11
2021/09/20 10:01:17;;;;;;;0.70;0.70;;;22.70;48.90;;;26.55;33.15;102072.75;5115574;28;20058;-11
2021/09/20 10:04:20;;;;;;;0.88;0.80;;;22.70;48.90;;;26.59;32.99;102074.25;5115586;28;20112;-11
2021/09/20 10:06:49;;;;;;;1.65;0.90;;;22.70;48.80;;;26.57;32.93;102070.81;5115533;28;20100;-11
2021/09/20 10:09:19;;;;;;;1.17;0.88;;;22.70;48.80;;;26.57;33.03;102074.34;5115557;28;20048;-11
2021/09/20 10:11:47;;;;;;;1.20;1.00;;;22.70;48.80;;;26.57;32.95;102074.34;5115442;28;20075;-11